sensor_id;sensor_type;location;lat;lon;timestamp;P1;durP1;ratioP1;P2;durP2;ratioP2
3189;SDS011;1606;51.946;10.558;2023-02-28T00:01:10;7.70;;;3.60;;
3189;SDS011;1606;51.946;10.558;2023-02-28T00:03:39;7.43;;;3.10;;
3189;SDS011;1606;51.946;10.558;2023-02-28T00:06:07;10.83;;;4.10;;
3189;SDS011;1606;51.946;10.558;2023-02-28T00:08:36;8.30;;;3.67;;
3189;SDS011;1606;51.946;10.558;2023-02-28T00:11:05;9.33;;;3.67;;
3189;SDS011;1606;51.946;10.558;2023-02-28T00:13:36;7.57;;;3.10;;
3189;SDS011;1606;51.946;10.558;2023-02-28T00:16:06;7.40;;;3.63;;
3189;SDS011;1606;51.946;10.558;2023-02-28T00:18:36;8.27;;;3.30;;
3189;SDS011;1606;51.946;10.558;2023-02-28T00:21:04;8.20;;;3.53;;
3189;SDS011;1606;51.946;10.558;2023-02-28T00:23:32;9.10;;;3.70;;
3189;SDS011;1606;51.946;10.558;2023-02-28T00:26:00;8.00;;;3.90;;
3189;SDS011;1606;51.946;10.558;2023-02-28T00:28:29;8.40;;;3.70;;
3189;SDS011;1606;51.946;10.558;2023-02-28T00:30:58;7.93;;;3.60;;
3189;SDS011;1606;51.946;10.558;2023-02-28T00:33:26;7.73;;;3.70;;
3189;SDS011;1606;51.946;10.558;2023-02-28T00:36:00;12.10;;;3.77;;
3189;SDS011;1606;51.946;10.558;2023-02-28T00:38:29;7.40;;;3.80;;
3189;SDS011;1606;51.946;10.558;2023-02-28T00:40:57;9.53;;;4.33;;
3189;SDS011;1606;51.946;10.558;2023-02-28T00:43:31;8.57;;;3.30;;
3189;SDS011;1606;51.946;10.558;2023-02-28T00:46:00;8.40;;;4.00;;
3189;SDS011;1606;51.946;10.558;2023-02-28T00:48:29;7.00;;;3.10;;
3189;SDS011;1606;51.946;10.558;2023-02-28T00:50:57;8.30;;;3.77;;
3189;SDS011;1606;51.946;10.558;2023-02-28T00:53:25;7.90;;;3.40;;
3189;SDS011;1606;51.946;10.558;2023-02-28T00:55:53;8.20;;;3.80;;
3189;SDS011;1606;51.946;10.558;2023-02-28T00:58:20;8.57;;;3.53;;
3189;SDS011;1606;51.946;10.558;2023-02-28T01:00:48;9.63;;;3.43;;
3189;SDS011;1606;51.946;10.558;2023-02-28T01:03:18;7.70;;;3.70;;
3189;SDS011;1606;51.946;10.558;2023-02-28T01:05:46;8.90;;;3.27;;
3189;SDS011;1606;51.946;10.558;2023-02-28T01:08:14;8.33;;;3.70;;
3189;SDS011;1606;51.946;10.558;2023-02-28T01:10:42;7.83;;;3.70;;
3189;SDS011;1606;51.946;10.558;2023-02-28T01:13:10;7.93;;;3.40;;
3189;SDS011;1606;51.946;10.558;2023-02-28T01:15:38;8.73;;;3.93;;
3189;SDS011;1606;51.946;10.558;2023-02-28T01:18:10;9.40;;;3.60;;
3189;SDS011;1606;51.946;10.558;2023-02-28T01:20:39;8.70;;;4.13;;
3189;SDS011;1606;51.946;10.558;2023-02-28T01:23:07;6.77;;;3.80;;
3189;SDS011;1606;51.946;10.558;2023-02-28T01:25:35;8.43;;;3.90;;
3189;SDS011;1606;51.946;10.558;2023-02-28T01:28:04;8.23;;;3.53;;
3189;SDS011;1606;51.946;10.558;2023-02-28T01:30:32;8.73;;;3.67;;
3189;SDS011;1606;51.946;10.558;2023-02-28T01:33:00;7.37;;;3.40;;
3189;SDS011;1606;51.946;10.558;2023-02-28T01:35:28;10.33;;;3.70;;
3189;SDS011;1606;51.946;10.558;2023-02-28T01:38:00;8.60;;;3.80;;
3189;SDS011;1606;51.946;10.558;2023-02-28T01:40:46;7.30;;;3.63;;
3189;SDS011;1606;51.946;10.558;2023-02-28T01:43:16;9.30;;;3.40;;
3189;SDS011;1606;51.946;10.558;2023-02-28T01:45:48;8.27;;;3.63;;
3189;SDS011;1606;51.946;10.558;2023-02-28T01:48:16;10.80;;;4.00;;
3189;SDS011;1606;51.946;10.558;2023-02-28T01:50:45;9.33;;;3.40;;
3189;SDS011;1606;51.946;10.558;2023-02-28T01:53:16;10.13;;;3.63;;
3189;SDS011;1606;51.946;10.558;2023-02-28T01:55:49;8.27;;;4.17;;
3189;SDS011;1606;51.946;10.558;2023-02-28T01:58:19;6.90;;;3.47;;
3189;SDS011;1606;51.946;10.558;2023-02-28T02:00:47;9.97;;;3.77;;
3189;SDS011;1606;51.946;10.558;2023-02-28T02:03:16;9.40;;;3.63;;
3189;SDS011;1606;51.946;10.558;2023-02-28T02:05:46;9.50;;;4.00;;
3189;SDS011;1606;51.946;10.558;2023-02-28T02:08:17;9.77;;;4.10;;
3189;SDS011;1606;51.946;10.558;2023-02-28T02:10:48;10.57;;;4.60;;
3189;SDS011;1606;51.946;10.558;2023-02-28T02:13:23;10.57;;;5.00;;
3189;SDS011;1606;51.946;10.558;2023-02-28T02:16:19;8.10;;;4.00;;
3189;SDS011;1606;51.946;10.558;2023-02-28T02:18:54;7.63;;;3.43;;
3189;SDS011;1606;51.946;10.558;2023-02-28T02:21:36;7.93;;;3.60;;
3189;SDS011;1606;51.946;10.558;2023-02-28T02:27:38;8.00;;;3.60;;
3189;SDS011;1606;51.946;10.558;2023-02-28T02:30:40;7.60;;;3.43;;
3189;SDS011;1606;51.946;10.558;2023-02-28T02:33:29;9.07;;;4.70;;
3189;SDS011;1606;51.946;10.558;2023-02-28T02:36:23;6.80;;;3.30;;
3189;SDS011;1606;51.946;10.558;2023-02-28T02:38:55;11.97;;;4.50;;
3189;SDS011;1606;51.946;10.558;2023-02-28T02:41:31;10.33;;;4.00;;
3189;SDS011;1606;51.946;10.558;2023-02-28T02:44:04;7.10;;;2.93;;
3189;SDS011;1606;51.946;10.558;2023-02-28T02:46:39;7.80;;;3.50;;
3189;SDS011;1606;51.946;10.558;2023-02-28T02:49:12;8.23;;;3.80;;
3189;SDS011;1606;51.946;10.558;2023-02-28T02:51:44;8.03;;;3.47;;
3189;SDS011;1606;51.946;10.558;2023-02-28T02:54:15;7.43;;;3.30;;
3189;SDS011;1606;51.946;10.558;2023-02-28T02:56:47;7.00;;;3.37;;
3189;SDS011;1606;51.946;10.558;2023-02-28T02:59:17;7.40;;;3.43;;
3189;SDS011;1606;51.946;10.558;2023-02-28T03:01:48;8.33;;;3.30;;
3189;SDS011;1606;51.946;10.558;2023-02-28T03:04:20;8.50;;;3.60;;
3189;SDS011;1606;51.946;10.558;2023-02-28T03:06:51;10.30;;;3.57;;
3189;SDS011;1606;51.946;10.558;2023-02-28T03:09:20;8.07;;;3.40;;
3189;SDS011;1606;51.946;10.558;2023-02-28T03:11:48;7.00;;;3.20;;
3189;SDS011;1606;51.946;10.558;2023-02-28T03:14:30;6.40;;;2.90;;
3189;SDS011;1606;51.946;10.558;2023-02-28T03:17:19;8.80;;;3.47;;
3189;SDS011;1606;51.946;10.558;2023-02-28T03:20:07;8.47;;;3.80;;
3189;SDS011;1606;51.946;10.558;2023-02-28T03:22:47;8.10;;;3.90;;
3189;SDS011;1606;51.946;10.558;2023-02-28T03:25:27;8.03;;;3.77;;
3189;SDS011;1606;51.946;10.558;2023-02-28T03:28:00;7.60;;;3.43;;
3189;SDS011;1606;51.946;10.558;2023-02-28T03:30:34;9.67;;;4.30;;
3189;SDS011;1606;51.946;10.558;2023-02-28T03:33:09;9.07;;;3.37;;
3189;SDS011;1606;51.946;10.558;2023-02-28T03:35:41;7.40;;;4.37;;
3189;SDS011;1606;51.946;10.558;2023-02-28T03:38:17;7.50;;;3.50;;
3189;SDS011;1606;51.946;10.558;2023-02-28T03:40:51;7.97;;;3.80;;
3189;SDS011;1606;51.946;10.558;2023-02-28T03:43:25;8.40;;;4.37;;
3189;SDS011;1606;51.946;10.558;2023-02-28T03:45:56;7.63;;;3.80;;
3189;SDS011;1606;51.946;10.558;2023-02-28T03:48:29;7.97;;;3.73;;
3189;SDS011;1606;51.946;10.558;2023-02-28T03:51:02;8.00;;;3.90;;
3189;SDS011;1606;51.946;10.558;2023-02-28T03:53:34;7.10;;;3.30;;
3189;SDS011;1606;51.946;10.558;2023-02-28T03:56:11;10.43;;;3.60;;
3189;SDS011;1606;51.946;10.558;2023-02-28T03:58:44;10.60;;;3.60;;
3189;SDS011;1606;51.946;10.558;2023-02-28T04:01:17;7.37;;;3.10;;
3189;SDS011;1606;51.946;10.558;2023-02-28T04:03:49;9.20;;;4.43;;
3189;SDS011;1606;51.946;10.558;2023-02-28T04:06:18;10.30;;;4.30;;
3189;SDS011;1606;51.946;10.558;2023-02-28T04:08:48;10.40;;;4.27;;
3189;SDS011;1606;51.946;10.558;2023-02-28T04:11:18;8.80;;;3.57;;
3189;SDS011;1606;51.946;10.558;2023-02-28T04:13:49;8.90;;;3.37;;
3189;SDS011;1606;51.946;10.558;2023-02-28T04:16:17;9.60;;;3.87;;
3189;SDS011;1606;51.946;10.558;2023-02-28T04:19:00;7.43;;;3.10;;
3189;SDS011;1606;51.946;10.558;2023-02-28T04:21:29;8.60;;;3.87;;
3189;SDS011;1606;51.946;10.558;2023-02-28T04:24:00;6.93;;;3.10;;
3189;SDS011;1606;51.946;10.558;2023-02-28T04:26:28;10.77;;;3.67;;
3189;SDS011;1606;51.946;10.558;2023-02-28T04:28:57;13.50;;;3.73;;
3189;SDS011;1606;51.946;10.558;2023-02-28T04:31:25;7.67;;;3.10;;
3189;SDS011;1606;51.946;10.558;2023-02-28T04:33:53;6.90;;;3.10;;
3189;SDS011;1606;51.946;10.558;2023-02-28T04:36:21;9.30;;;4.43;;
3189;SDS011;1606;51.946;10.558;2023-02-28T04:38:49;10.03;;;4.23;;
3189;SDS011;1606;51.946;10.558;2023-02-28T04:41:19;7.70;;;3.10;;
3189;SDS011;1606;51.946;10.558;2023-02-28T04:43:48;8.33;;;3.50;;
3189;SDS011;1606;51.946;10.558;2023-02-28T04:46:18;6.93;;;3.23;;
3189;SDS011;1606;51.946;10.558;2023-02-28T04:48:46;7.30;;;3.13;;
3189;SDS011;1606;51.946;10.558;2023-02-28T04:51:15;7.43;;;3.10;;
3189;SDS011;1606;51.946;10.558;2023-02-28T04:53:44;8.40;;;2.90;;
3189;SDS011;1606;51.946;10.558;2023-02-28T04:56:13;10.32;;;3.47;;
3189;SDS011;1606;51.946;10.558;2023-02-28T04:58:44;10.77;;;4.33;;
3189;SDS011;1606;51.946;10.558;2023-02-28T05:01:16;7.50;;;3.60;;
3189;SDS011;1606;51.946;10.558;2023-02-28T05:03:46;7.73;;;3.10;;
3189;SDS011;1606;51.946;10.558;2023-02-28T05:06:15;12.37;;;3.53;;
3189;SDS011;1606;51.946;10.558;2023-02-28T05:08:42;8.67;;;4.03;;
3189;SDS011;1606;51.946;10.558;2023-02-28T05:11:13;8.47;;;4.23;;
3189;SDS011;1606;51.946;10.558;2023-02-28T05:13:44;13.10;;;4.10;;
3189;SDS011;1606;51.946;10.558;2023-02-28T05:16:12;8.30;;;3.50;;
3189;SDS011;1606;51.946;10.558;2023-02-28T05:18:41;7.10;;;3.17;;
3189;SDS011;1606;51.946;10.558;2023-02-28T05:21:18;12.30;;;3.57;;
3189;SDS011;1606;51.946;10.558;2023-02-28T05:23:51;10.50;;;3.70;;
3189;SDS011;1606;51.946;10.558;2023-02-28T05:26:19;11.57;;;5.50;;
3189;SDS011;1606;51.946;10.558;2023-02-28T05:28:49;7.80;;;3.90;;
3189;SDS011;1606;51.946;10.558;2023-02-28T05:31:17;9.23;;;3.57;;
3189;SDS011;1606;51.946;10.558;2023-02-28T05:33:45;7.37;;;3.13;;
3189;SDS011;1606;51.946;10.558;2023-02-28T05:36:13;10.00;;;3.40;;
3189;SDS011;1606;51.946;10.558;2023-02-28T05:38:41;8.40;;;3.80;;
3189;SDS011;1606;51.946;10.558;2023-02-28T05:41:09;8.40;;;3.30;;
3189;SDS011;1606;51.946;10.558;2023-02-28T05:43:38;8.27;;;3.70;;
3189;SDS011;1606;51.946;10.558;2023-02-28T05:46:09;9.60;;;3.53;;
3189;SDS011;1606;51.946;10.558;2023-02-28T05:48:39;10.60;;;3.57;;
3189;SDS011;1606;51.946;10.558;2023-02-28T05:51:08;8.27;;;3.80;;
3189;SDS011;1606;51.946;10.558;2023-02-28T05:53:36;7.20;;;3.40;;
3189;SDS011;1606;51.946;10.558;2023-02-28T05:56:04;10.50;;;4.00;;
3189;SDS011;1606;51.946;10.558;2023-02-28T05:58:32;12.63;;;3.60;;
3189;SDS011;1606;51.946;10.558;2023-02-28T06:01:11;11.67;;;3.10;;
3189;SDS011;1606;51.946;10.558;2023-02-28T06:03:48;9.03;;;3.10;;
3189;SDS011;1606;51.946;10.558;2023-02-28T06:06:16;10.00;;;3.80;;
3189;SDS011;1606;51.946;10.558;2023-02-28T06:08:44;7.83;;;4.83;;
3189;SDS011;1606;51.946;10.558;2023-02-28T06:11:12;9.23;;;3.97;;
3189;SDS011;1606;51.946;10.558;2023-02-28T06:13:40;9.97;;;4.70;;
3189;SDS011;1606;51.946;10.558;2023-02-28T06:16:08;8.80;;;3.43;;
3189;SDS011;1606;51.946;10.558;2023-02-28T06:18:39;8.63;;;3.50;;
3189;SDS011;1606;51.946;10.558;2023-02-28T06:21:07;8.70;;;2.93;;
3189;SDS011;1606;51.946;10.558;2023-02-28T06:23:35;9.07;;;3.43;;
3189;SDS011;1606;51.946;10.558;2023-02-28T06:26:03;8.47;;;3.37;;
3189;SDS011;1606;51.946;10.558;2023-02-28T06:28:31;9.47;;;3.30;;
3189;SDS011;1606;51.946;10.558;2023-02-28T06:30:58;9.47;;;3.10;;
3189;SDS011;1606;51.946;10.558;2023-02-28T06:33:26;8.80;;;3.63;;
3189;SDS011;1606;51.946;10.558;2023-02-28T06:35:55;8.60;;;3.37;;
3189;SDS011;1606;51.946;10.558;2023-02-28T06:38:23;9.97;;;4.13;;
3189;SDS011;1606;51.946;10.558;2023-02-28T06:40:52;7.90;;;3.27;;
3189;SDS011;1606;51.946;10.558;2023-02-28T06:43:21;8.13;;;3.57;;
3189;SDS011;1606;51.946;10.558;2023-02-28T06:45:49;8.80;;;3.70;;
3189;SDS011;1606;51.946;10.558;2023-02-28T06:48:17;8.50;;;3.70;;
3189;SDS011;1606;51.946;10.558;2023-02-28T06:50:45;7.93;;;3.23;;
3189;SDS011;1606;51.946;10.558;2023-02-28T06:53:14;12.03;;;3.80;;
3189;SDS011;1606;51.946;10.558;2023-02-28T06:55:42;7.40;;;3.13;;
3189;SDS011;1606;51.946;10.558;2023-02-28T06:58:09;8.30;;;3.20;;
3189;SDS011;1606;51.946;10.558;2023-02-28T07:00:41;8.23;;;3.30;;
3189;SDS011;1606;51.946;10.558;2023-02-28T07:03:10;8.30;;;3.50;;
3189;SDS011;1606;51.946;10.558;2023-02-28T07:05:38;8.60;;;3.63;;
3189;SDS011;1606;51.946;10.558;2023-02-28T07:08:06;9.83;;;3.90;;
3189;SDS011;1606;51.946;10.558;2023-02-28T07:10:36;10.50;;;4.57;;
3189;SDS011;1606;51.946;10.558;2023-02-28T07:13:04;9.40;;;3.60;;
3189;SDS011;1606;51.946;10.558;2023-02-28T07:15:33;8.50;;;2.80;;
3189;SDS011;1606;51.946;10.558;2023-02-28T07:18:05;7.33;;;3.40;;
3189;SDS011;1606;51.946;10.558;2023-02-28T07:20:32;8.73;;;3.50;;
3189;SDS011;1606;51.946;10.558;2023-02-28T07:23:00;9.93;;;2.97;;
3189;SDS011;1606;51.946;10.558;2023-02-28T07:25:28;7.17;;;3.07;;
3189;SDS011;1606;51.946;10.558;2023-02-28T07:27:57;7.30;;;3.10;;
3189;SDS011;1606;51.946;10.558;2023-02-28T07:30:26;8.97;;;3.77;;
3189;SDS011;1606;51.946;10.558;2023-02-28T07:32:54;7.20;;;3.27;;
3189;SDS011;1606;51.946;10.558;2023-02-28T07:35:22;8.80;;;3.30;;
3189;SDS011;1606;51.946;10.558;2023-02-28T07:37:50;6.60;;;3.00;;
3189;SDS011;1606;51.946;10.558;2023-02-28T07:40:18;7.50;;;2.77;;
3189;SDS011;1606;51.946;10.558;2023-02-28T07:42:46;8.13;;;3.13;;
3189;SDS011;1606;51.946;10.558;2023-02-28T07:45:15;7.53;;;3.33;;
3189;SDS011;1606;51.946;10.558;2023-02-28T07:47:43;7.90;;;3.57;;
3189;SDS011;1606;51.946;10.558;2023-02-28T07:50:13;8.43;;;3.00;;
3189;SDS011;1606;51.946;10.558;2023-02-28T07:52:42;9.67;;;4.00;;
3189;SDS011;1606;51.946;10.558;2023-02-28T07:55:10;7.30;;;3.03;;
3189;SDS011;1606;51.946;10.558;2023-02-28T07:57:39;8.80;;;3.63;;
3189;SDS011;1606;51.946;10.558;2023-02-28T08:00:08;9.13;;;4.40;;
3189;SDS011;1606;51.946;10.558;2023-02-28T08:02:40;9.37;;;4.40;;
3189;SDS011;1606;51.946;10.558;2023-02-28T08:05:07;7.27;;;3.70;;
3189;SDS011;1606;51.946;10.558;2023-02-28T08:07:36;8.70;;;4.37;;
3189;SDS011;1606;51.946;10.558;2023-02-28T08:10:03;6.80;;;3.80;;
3189;SDS011;1606;51.946;10.558;2023-02-28T08:12:32;8.67;;;4.10;;
3189;SDS011;1606;51.946;10.558;2023-02-28T08:15:00;10.80;;;5.03;;
3189;SDS011;1606;51.946;10.558;2023-02-28T08:17:28;7.97;;;4.40;;
3189;SDS011;1606;51.946;10.558;2023-02-28T08:19:57;10.97;;;4.90;;
3189;SDS011;1606;51.946;10.558;2023-02-28T08:22:25;10.87;;;5.00;;
3189;SDS011;1606;51.946;10.558;2023-02-28T08:24:52;9.87;;;3.90;;
3189;SDS011;1606;51.946;10.558;2023-02-28T08:27:20;9.07;;;4.23;;
3189;SDS011;1606;51.946;10.558;2023-02-28T08:29:48;8.83;;;4.10;;
3189;SDS011;1606;51.946;10.558;2023-02-28T08:32:16;7.03;;;3.53;;
3189;SDS011;1606;51.946;10.558;2023-02-28T08:34:56;11.93;;;4.60;;
3189;SDS011;1606;51.946;10.558;2023-02-28T08:37:24;10.90;;;4.70;;
3189;SDS011;1606;51.946;10.558;2023-02-28T08:39:52;7.77;;;4.13;;
3189;SDS011;1606;51.946;10.558;2023-02-28T08:42:21;7.77;;;4.33;;
3189;SDS011;1606;51.946;10.558;2023-02-28T08:44:50;8.53;;;3.93;;
3189;SDS011;1606;51.946;10.558;2023-02-28T08:47:18;12.93;;;4.27;;
3189;SDS011;1606;51.946;10.558;2023-02-28T08:49:46;11.50;;;4.93;;
3189;SDS011;1606;51.946;10.558;2023-02-28T08:52:15;9.93;;;5.67;;
3189;SDS011;1606;51.946;10.558;2023-02-28T08:54:43;8.30;;;4.10;;
3189;SDS011;1606;51.946;10.558;2023-02-28T08:57:11;8.50;;;4.80;;
3189;SDS011;1606;51.946;10.558;2023-02-28T08:59:38;8.90;;;4.40;;
3189;SDS011;1606;51.946;10.558;2023-02-28T09:02:07;9.33;;;5.10;;
3189;SDS011;1606;51.946;10.558;2023-02-28T09:04:36;9.77;;;3.83;;
3189;SDS011;1606;51.946;10.558;2023-02-28T09:07:04;12.87;;;4.10;;
3189;SDS011;1606;51.946;10.558;2023-02-28T09:09:33;15.93;;;4.03;;
3189;SDS011;1606;51.946;10.558;2023-02-28T09:12:01;8.53;;;4.30;;
3189;SDS011;1606;51.946;10.558;2023-02-28T09:14:30;9.70;;;4.00;;
3189;SDS011;1606;51.946;10.558;2023-02-28T09:16:58;9.37;;;4.50;;
3189;SDS011;1606;51.946;10.558;2023-02-28T09:19:25;10.43;;;4.13;;
3189;SDS011;1606;51.946;10.558;2023-02-28T09:21:53;8.20;;;3.80;;
3189;SDS011;1606;51.946;10.558;2023-02-28T09:24:21;6.90;;;3.80;;
3189;SDS011;1606;51.946;10.558;2023-02-28T09:26:50;7.53;;;4.00;;
3189;SDS011;1606;51.946;10.558;2023-02-28T09:29:30;9.63;;;4.30;;
3189;SDS011;1606;51.946;10.558;2023-02-28T09:31:58;8.33;;;4.00;;
3189;SDS011;1606;51.946;10.558;2023-02-28T09:34:26;8.70;;;3.70;;
3189;SDS011;1606;51.946;10.558;2023-02-28T09:36:56;8.83;;;4.20;;
3189;SDS011;1606;51.946;10.558;2023-02-28T09:39:24;8.20;;;4.00;;
3189;SDS011;1606;51.946;10.558;2023-02-28T09:41:55;9.30;;;4.00;;
3189;SDS011;1606;51.946;10.558;2023-02-28T09:44:26;9.30;;;3.57;;
3189;SDS011;1606;51.946;10.558;2023-02-28T09:46:58;7.40;;;3.47;;
3189;SDS011;1606;51.946;10.558;2023-02-28T09:49:31;8.83;;;3.57;;
3189;SDS011;1606;51.946;10.558;2023-02-28T09:52:06;6.80;;;3.20;;
3189;SDS011;1606;51.946;10.558;2023-02-28T09:54:37;6.27;;;2.37;;
3189;SDS011;1606;51.946;10.558;2023-02-28T09:57:08;6.30;;;2.90;;
3189;SDS011;1606;51.946;10.558;2023-02-28T09:59:47;7.60;;;3.57;;
3189;SDS011;1606;51.946;10.558;2023-02-28T10:02:30;8.27;;;2.90;;
3189;SDS011;1606;51.946;10.558;2023-02-28T10:05:17;6.30;;;2.30;;
3189;SDS011;1606;51.946;10.558;2023-02-28T10:07:50;6.37;;;3.10;;
3189;SDS011;1606;51.946;10.558;2023-02-28T10:10:26;6.97;;;3.27;;
3189;SDS011;1606;51.946;10.558;2023-02-28T10:12:58;9.53;;;3.20;;
3189;SDS011;1606;51.946;10.558;2023-02-28T10:15:30;6.40;;;2.97;;
3189;SDS011;1606;51.946;10.558;2023-02-28T10:18:02;7.47;;;3.00;;
3189;SDS011;1606;51.946;10.558;2023-02-28T10:20:35;5.67;;;2.63;;
3189;SDS011;1606;51.946;10.558;2023-02-28T10:23:09;8.37;;;3.73;;
3189;SDS011;1606;51.946;10.558;2023-02-28T10:25:44;8.17;;;3.27;;
3189;SDS011;1606;51.946;10.558;2023-02-28T10:28:16;7.63;;;2.83;;
3189;SDS011;1606;51.946;10.558;2023-02-28T10:30:45;6.30;;;2.90;;
3189;SDS011;1606;51.946;10.558;2023-02-28T10:33:18;6.27;;;2.90;;
3189;SDS011;1606;51.946;10.558;2023-02-28T10:35:48;7.33;;;3.30;;
3189;SDS011;1606;51.946;10.558;2023-02-28T10:38:18;7.30;;;3.10;;
3189;SDS011;1606;51.946;10.558;2023-02-28T10:40:47;6.60;;;3.70;;
3189;SDS011;1606;51.946;10.558;2023-02-28T10:43:21;8.90;;;3.00;;
3189;SDS011;1606;51.946;10.558;2023-02-28T10:45:55;8.00;;;3.20;;
3189;SDS011;1606;51.946;10.558;2023-02-28T10:48:27;7.20;;;3.20;;
3189;SDS011;1606;51.946;10.558;2023-02-28T10:51:01;7.23;;;3.20;;
3189;SDS011;1606;51.946;10.558;2023-02-28T10:53:33;7.40;;;3.03;;
3189;SDS011;1606;51.946;10.558;2023-02-28T10:56:24;7.70;;;3.53;;
3189;SDS011;1606;51.946;10.558;2023-02-28T10:58:54;6.47;;;3.23;;
3189;SDS011;1606;51.946;10.558;2023-02-28T11:01:24;6.30;;;2.70;;
3189;SDS011;1606;51.946;10.558;2023-02-28T11:04:00;7.50;;;3.27;;
3189;SDS011;1606;51.946;10.558;2023-02-28T11:06:29;5.93;;;2.43;;
3189;SDS011;1606;51.946;10.558;2023-02-28T11:09:00;7.00;;;2.77;;
3189;SDS011;1606;51.946;10.558;2023-02-28T11:11:30;7.03;;;2.77;;
3189;SDS011;1606;51.946;10.558;2023-02-28T11:14:17;7.70;;;3.23;;
3189;SDS011;1606;51.946;10.558;2023-02-28T11:16:47;6.90;;;3.30;;
3189;SDS011;1606;51.946;10.558;2023-02-28T11:19:18;6.40;;;3.20;;
3189;SDS011;1606;51.946;10.558;2023-02-28T11:21:51;7.33;;;3.60;;
3189;SDS011;1606;51.946;10.558;2023-02-28T11:24:22;8.77;;;4.00;;
3189;SDS011;1606;51.946;10.558;2023-02-28T11:26:55;7.00;;;3.40;;
3189;SDS011;1606;51.946;10.558;2023-02-28T11:29:26;8.73;;;3.10;;
3189;SDS011;1606;51.946;10.558;2023-02-28T11:32:06;9.17;;;3.53;;
3189;SDS011;1606;51.946;10.558;2023-02-28T11:34:40;6.70;;;3.40;;
3189;SDS011;1606;51.946;10.558;2023-02-28T11:37:11;8.40;;;3.70;;
3189;SDS011;1606;51.946;10.558;2023-02-28T11:39:40;7.13;;;3.50;;
3189;SDS011;1606;51.946;10.558;2023-02-28T11:42:15;7.83;;;3.53;;
3189;SDS011;1606;51.946;10.558;2023-02-28T11:45:03;7.70;;;3.33;;
3189;SDS011;1606;51.946;10.558;2023-02-28T11:47:42;7.17;;;3.50;;
3189;SDS011;1606;51.946;10.558;2023-02-28T11:53:10;10.00;;;3.73;;
3189;SDS011;1606;51.946;10.558;2023-02-28T11:55:48;7.40;;;3.73;;
3189;SDS011;1606;51.946;10.558;2023-02-28T12:01:23;8.90;;;3.67;;
3189;SDS011;1606;51.946;10.558;2023-02-28T12:04:01;7.77;;;3.40;;
3189;SDS011;1606;51.946;10.558;2023-02-28T12:06:40;6.77;;;3.23;;
3189;SDS011;1606;51.946;10.558;2023-02-28T12:09:20;7.80;;;3.50;;
3189;SDS011;1606;51.946;10.558;2023-02-28T12:12:03;7.23;;;3.50;;
3189;SDS011;1606;51.946;10.558;2023-02-28T12:17:36;7.40;;;3.63;;
3189;SDS011;1606;51.946;10.558;2023-02-28T12:20:17;9.00;;;3.73;;
3189;SDS011;1606;51.946;10.558;2023-02-28T12:22:55;6.80;;;3.30;;
3189;SDS011;1606;51.946;10.558;2023-02-28T12:25:57;6.47;;;3.20;;
3189;SDS011;1606;51.946;10.558;2023-02-28T12:28:36;7.50;;;3.37;;
3189;SDS011;1606;51.946;10.558;2023-02-28T12:31:09;7.80;;;3.50;;
3189;SDS011;1606;51.946;10.558;2023-02-28T12:33:43;7.30;;;3.10;;
3189;SDS011;1606;51.946;10.558;2023-02-28T12:36:15;11.33;;;3.67;;
3189;SDS011;1606;51.946;10.558;2023-02-28T12:38:48;6.63;;;3.50;;
3189;SDS011;1606;51.946;10.558;2023-02-28T12:41:25;7.60;;;3.73;;
3189;SDS011;1606;51.946;10.558;2023-02-28T12:43:57;8.20;;;3.50;;
3189;SDS011;1606;51.946;10.558;2023-02-28T12:46:30;7.33;;;4.07;;
3189;SDS011;1606;51.946;10.558;2023-02-28T12:49:04;7.17;;;3.43;;
3189;SDS011;1606;51.946;10.558;2023-02-28T12:51:34;7.53;;;4.00;;
3189;SDS011;1606;51.946;10.558;2023-02-28T12:54:05;7.20;;;3.80;;
3189;SDS011;1606;51.946;10.558;2023-02-28T12:56:42;8.27;;;4.30;;
3189;SDS011;1606;51.946;10.558;2023-02-28T12:59:18;8.10;;;3.20;;
3189;SDS011;1606;51.946;10.558;2023-02-28T13:04:51;6.90;;;3.63;;
3189;SDS011;1606;51.946;10.558;2023-02-28T13:07:49;7.77;;;4.17;;
3189;SDS011;1606;51.946;10.558;2023-02-28T13:10:38;8.73;;;3.70;;
3189;SDS011;1606;51.946;10.558;2023-02-28T13:13:11;7.60;;;3.83;;
3189;SDS011;1606;51.946;10.558;2023-02-28T13:15:56;8.33;;;4.27;;
3189;SDS011;1606;51.946;10.558;2023-02-28T13:18:29;8.60;;;4.13;;
3189;SDS011;1606;51.946;10.558;2023-02-28T13:21:00;8.03;;;4.00;;
3189;SDS011;1606;51.946;10.558;2023-02-28T13:23:57;7.07;;;3.40;;
3189;SDS011;1606;51.946;10.558;2023-02-28T13:29:36;7.10;;;3.73;;
3189;SDS011;1606;51.946;10.558;2023-02-28T13:35:12;6.90;;;3.57;;
3189;SDS011;1606;51.946;10.558;2023-02-28T13:44:10;7.90;;;4.00;;
3189;SDS011;1606;51.946;10.558;2023-02-28T13:49:39;7.53;;;3.70;;
3189;SDS011;1606;51.946;10.558;2023-02-28T13:52:10;7.90;;;3.90;;
3189;SDS011;1606;51.946;10.558;2023-02-28T13:54:50;8.03;;;3.70;;
3189;SDS011;1606;51.946;10.558;2023-02-28T13:57:27;7.10;;;3.90;;
3189;SDS011;1606;51.946;10.558;2023-02-28T14:00:16;8.37;;;4.00;;
3189;SDS011;1606;51.946;10.558;2023-02-28T14:03:02;7.40;;;3.30;;
3189;SDS011;1606;51.946;10.558;2023-02-28T14:05:38;8.60;;;3.80;;
3189;SDS011;1606;51.946;10.558;2023-02-28T14:08:06;8.10;;;3.93;;
3189;SDS011;1606;51.946;10.558;2023-02-28T14:10:41;6.43;;;2.80;;
3189;SDS011;1606;51.946;10.558;2023-02-28T14:13:13;14.13;;;4.10;;
3189;SDS011;1606;51.946;10.558;2023-02-28T14:15:58;8.33;;;4.00;;
3189;SDS011;1606;51.946;10.558;2023-02-28T14:18:29;6.40;;;3.50;;
3189;SDS011;1606;51.946;10.558;2023-02-28T14:21:01;9.57;;;3.90;;
3189;SDS011;1606;51.946;10.558;2023-02-28T14:23:56;7.73;;;3.70;;
3189;SDS011;1606;51.946;10.558;2023-02-28T14:26:52;7.03;;;3.70;;
3189;SDS011;1606;51.946;10.558;2023-02-28T14:29:41;9.40;;;4.47;;
3189;SDS011;1606;51.946;10.558;2023-02-28T14:32:33;8.17;;;4.07;;
3189;SDS011;1606;51.946;10.558;2023-02-28T14:35:09;9.50;;;4.20;;
3189;SDS011;1606;51.946;10.558;2023-02-28T14:37:47;10.07;;;5.10;;
3189;SDS011;1606;51.946;10.558;2023-02-28T14:40:16;7.60;;;3.90;;
3189;SDS011;1606;51.946;10.558;2023-02-28T14:42:54;8.50;;;4.53;;
3189;SDS011;1606;51.946;10.558;2023-02-28T14:45:23;7.60;;;3.87;;
3189;SDS011;1606;51.946;10.558;2023-02-28T14:47:52;9.00;;;4.30;;
3189;SDS011;1606;51.946;10.558;2023-02-28T14:50:20;8.33;;;4.30;;
3189;SDS011;1606;51.946;10.558;2023-02-28T14:52:51;8.33;;;5.07;;
3189;SDS011;1606;51.946;10.558;2023-02-28T14:55:23;10.00;;;5.33;;
3189;SDS011;1606;51.946;10.558;2023-02-28T14:57:53;7.37;;;4.37;;
3189;SDS011;1606;51.946;10.558;2023-02-28T15:00:23;9.50;;;5.40;;
3189;SDS011;1606;51.946;10.558;2023-02-28T15:02:54;9.00;;;5.40;;
3189;SDS011;1606;51.946;10.558;2023-02-28T15:05:24;7.77;;;4.50;;
3189;SDS011;1606;51.946;10.558;2023-02-28T15:08:03;10.70;;;4.70;;
3189;SDS011;1606;51.946;10.558;2023-02-28T15:10:33;9.43;;;4.80;;
3189;SDS011;1606;51.946;10.558;2023-02-28T15:13:02;9.80;;;5.17;;
3189;SDS011;1606;51.946;10.558;2023-02-28T15:15:35;12.80;;;6.10;;
3189;SDS011;1606;51.946;10.558;2023-02-28T15:18:31;10.53;;;5.37;;
3189;SDS011;1606;51.946;10.558;2023-02-28T15:21:07;11.97;;;5.50;;
3189;SDS011;1606;51.946;10.558;2023-02-28T15:23:38;11.23;;;5.40;;
3189;SDS011;1606;51.946;10.558;2023-02-28T15:26:10;9.53;;;4.93;;
3189;SDS011;1606;51.946;10.558;2023-02-28T15:28:40;9.43;;;5.53;;
3189;SDS011;1606;51.946;10.558;2023-02-28T15:31:17;12.20;;;6.20;;
3189;SDS011;1606;51.946;10.558;2023-02-28T15:33:53;8.80;;;5.20;;
3189;SDS011;1606;51.946;10.558;2023-02-28T15:36:24;8.10;;;4.70;;
3189;SDS011;1606;51.946;10.558;2023-02-28T15:38:54;9.40;;;5.53;;
3189;SDS011;1606;51.946;10.558;2023-02-28T15:41:35;11.00;;;4.80;;
3189;SDS011;1606;51.946;10.558;2023-02-28T15:44:14;9.77;;;4.73;;
3189;SDS011;1606;51.946;10.558;2023-02-28T15:46:54;9.70;;;4.83;;
3189;SDS011;1606;51.946;10.558;2023-02-28T15:49:27;9.30;;;5.10;;
3189;SDS011;1606;51.946;10.558;2023-02-28T15:52:00;7.87;;;4.60;;
3189;SDS011;1606;51.946;10.558;2023-02-28T15:54:29;7.73;;;4.40;;
3189;SDS011;1606;51.946;10.558;2023-02-28T15:57:01;8.90;;;4.47;;
3189;SDS011;1606;51.946;10.558;2023-02-28T15:59:32;8.57;;;4.60;;
3189;SDS011;1606;51.946;10.558;2023-02-28T16:02:04;10.07;;;5.93;;